SAVV/VDM METAR and TAF weather

Enter ICAO airport designator
Station Type Date Time Source
SAVV METAR 2019/09/04 13:22 UTC NOAA

SAVV 041322Z 18012KT 9999 FEW025 FEW030TCU SCT100 05/01 Q1031 RESHRA


Station Type Date Time Source
SAVV Decoded METAR 2019/09/04 13:22 UTC NOAA

Viedma Aerodrome, Argentina (SAVV) 40-51S 063-01W 7M
Sep 04, 2019 - 09:22 AM EDT / 2019.09.04 1322 UTC
Wind: from the S (180 degrees) at 14 MPH (12 KT):0
Visibility: greater than 7 mile(s):0
Sky conditions: partly cloudy
Weather: Towering cumulus clouds observed
Temperature: 41 F (5 C)
Dew Point: 33 F (1 C)
Relative Humidity: 75%
Pressure (altimeter): 30.45 in. Hg (1031 hPa)
ob: SAVV 041322Z 18012KT 9999 FEW025 FEW030TCU SCT100 05/01 Q1031 RESHRA
cycle: 13

Station Type Date Time Source
SAVV TAF 2019/04/29 06:24 UTC NOAA

TAF TAF SAVV 290500Z 2906/3006 29015KT CAVOK TX18/2919Z TN07/3006Z
BECMG 2908/3010 25010KT
TEMPO 2914/2921 25020G30KT

Example: see airport list